Time;durP1;ratioP1;P1;durP2;ratioP2;P2;SDS_P1;SDS_P2;PMS_P1;PMS_P2;Temp;Humidity;BMP_temperature;BMP_pressure;BME280_temperature;BME280_humidity;BME280_pressure;Samples;Min_cycle;Max_cycle;Signal;HPM_P1;HPM_P2
2024/01/26 00:00:37;;;;;;;35.10;22.40;;;;;;;3.05;100.00;99903.68;105957;1255;63907;-78
2024/01/26 00:03:04;;;;;;;33.80;21.60;;;;;;;3.02;100.00;99904.86;105843;1251;71245;-79
2024/01/26 00:05:31;;;;;;;35.20;23.70;;;;;;;2.97;100.00;99899.70;106013;1254;61130;-80
2024/01/26 00:07:59;;;;;;;36.90;23.10;;;;;;;2.94;100.00;99904.52;106013;1250;60004;-78
2024/01/26 00:10:26;;;;;;;38.00;24.10;;;;;;;2.91;100.00;99904.44;105873;1254;73023;-80
2024/01/26 00:12:53;;;;;;;37.70;23.10;;;;;;;2.88;100.00;99901.61;105864;1251;63965;-77
2024/01/26 00:15:21;;;;;;;39.80;22.10;;;;;;;2.87;100.00;99902.54;105838;1251;71304;-78
2024/01/26 00:17:48;;;;;;;37.00;21.90;;;;;;;2.84;100.00;99902.13;105912;1250;61029;-77
2024/01/26 00:20:15;;;;;;;38.70;24.70;;;;;;;2.81;100.00;99899.32;105909;1254;59614;-76
2024/01/26 00:22:42;;;;;;;38.60;23.30;;;;;;;2.76;100.00;99906.08;105871;1254;72917;-78
2024/01/26 00:25:10;;;;;;;32.70;23.20;;;;;;;2.73;100.00;99910.87;105864;1251;62312;-78
2024/01/26 00:27:37;;;;;;;43.00;25.60;;;;;;;2.69;100.00;99911.50;105935;1251;71530;-78
2024/01/26 00:30:06;;;;;;;38.70;23.70;;;;;;;2.69;100.00;99911.85;105970;1252;59738;-78
2024/01/26 00:32:33;;;;;;;39.70;24.00;;;;;;;2.71;100.00;99906.42;105958;1251;60153;-79
2024/01/26 00:35:01;;;;;;;45.20;26.40;;;;;;;2.73;100.00;99901.52;105935;1251;73052;-78
2024/01/26 00:37:28;;;;;;;40.40;24.80;;;;;;;2.76;100.00;99901.05;105992;1257;63826;-79
2024/01/26 00:39:55;;;;;;;33.70;22.80;;;;;;;2.81;100.00;99902.42;105926;1251;72694;-78
2024/01/26 00:42:22;;;;;;;39.80;23.70;;;;;;;2.84;100.00;99905.04;105909;1251;59745;-77
2024/01/26 00:44:49;;;;;;;37.90;23.70;;;;;;;2.87;100.00;99908.36;106084;1251;60366;-77
2024/01/26 00:47:16;;;;;;;35.20;22.70;;;;;;;2.89;100.00;99908.47;106073;1251;71745;-78
2024/01/26 00:49:44;;;;;;;35.50;23.20;;;;;;;2.91;100.00;99913.58;106077;1254;63599;-77
2024/01/26 00:52:18;;;;;;;31.70;20.20;;;;;;;2.93;100.00;99911.98;105847;1252;70562;-79
2024/01/26 00:54:45;;;;;;;32.30;20.60;;;;;;;2.90;100.00;99912.74;105938;1254;61247;-79
2024/01/26 00:57:12;;;;;;;34.50;20.80;;;;;;;2.89;100.00;99910.03;106027;1255;60056;-78
2024/01/26 00:59:39;;;;;;;33.40;20.50;;;;;;;2.88;100.00;99907.84;106583;1250;73179;-77
2024/01/26 01:02:06;;;;;;;34.00;22.10;;;;;;;2.88;100.00;99903.87;108987;1251;63969;-79
2024/01/26 01:04:33;;;;;;;35.00;21.20;;;;;;;2.88;100.00;99910.08;106658;1250;72054;-77
2024/01/26 01:07:01;;;;;;;35.50;21.30;;;;;;;2.86;100.00;99907.20;107120;1254;59729;-76
2024/01/26 01:09:28;;;;;;;32.30;20.60;;;;;;;2.85;100.00;99907.79;106373;1251;60201;-80
2024/01/26 01:11:56;;;;;;;32.10;19.70;;;;;;;2.85;100.00;99909.31;106404;1254;72724;-79
2024/01/26 01:14:24;;;;;;;36.50;20.40;;;;;;;2.86;100.00;99911.35;106996;1251;62609;-77
2024/01/26 01:16:50;;;;;;;34.60;19.60;;;;;;;2.87;100.00;99911.84;108402;1250;71250;-76
2024/01/26 01:19:17;;;;;;;27.10;17.00;;;;;;;2.87;100.00;99913.23;108596;1250;59736;-77
2024/01/26 01:21:45;;;;;;;30.50;18.90;;;;;;;2.86;100.00;99913.27;109690;1251;58923;-77
2024/01/26 01:24:11;;;;;;;28.60;17.30;;;;;;;2.86;100.00;99917.91;108402;1254;71623;-77
2024/01/26 01:26:39;;;;;;;30.60;17.90;;;;;;;2.87;100.00;99916.85;105878;1254;63928;-79
2024/01/26 01:29:06;;;;;;;31.90;18.00;;;;;;;2.86;100.00;99919.48;105838;1251;71267;-78
2024/01/26 01:31:34;;;;;;;27.20;16.90;;;;;;;2.86;100.00;99919.65;106081;1251;61024;-78
2024/01/26 01:34:02;;;;;;;28.30;17.80;;;;;;;2.85;100.00;99919.17;106019;1251;60325;-77
2024/01/26 01:36:29;;;;;;;28.00;17.30;;;;;;;2.86;100.00;99920.15;105838;1251;73015;-79
2024/01/26 01:38:56;;;;;;;31.20;19.80;;;;;;;2.87;100.00;99923.56;105810;1257;62441;-79
2024/01/26 01:41:22;;;;;;;36.90;20.30;;;;;;;2.89;100.00;99925.75;105928;1252;71269;-79
2024/01/26 01:43:53;;;;;;;32.00;18.90;;;;;;;2.90;100.00;99926.22;105811;1254;59746;-78
2024/01/26 01:46:20;;;;;;;30.40;19.70;;;;;;;2.92;100.00;99927.72;105919;1250;59632;-79
2024/01/26 01:48:49;;;;;;;33.50;19.40;;;;;;;2.92;100.00;99928.59;105872;1251;71463;-76
2024/01/26 01:51:16;;;;;;;32.80;17.80;;;;;;;2.89;100.00;99930.90;105834;1250;62363;-79
2024/01/26 01:53:43;;;;;;;31.40;19.40;;;;;;;2.87;100.00;99930.81;105970;1252;71165;-79
2024/01/26 01:56:10;;;;;;;32.50;18.40;;;;;;;2.87;100.00;99929.28;105868;1251;59838;-80
2024/01/26 01:58:39;;;;;;;32.50;18.60;;;;;;;2.87;100.00;99929.96;106055;1251;60390;-79
2024/01/26 02:01:07;;;;;;;32.50;17.50;;;;;;;2.88;100.00;99928.88;106069;1251;71531;-78
2024/01/26 02:03:34;;;;;;;28.20;17.60;;;;;;;2.87;100.00;99929.27;106051;1251;62915;-79
2024/01/26 02:06:01;;;;;;;30.00;18.80;;;;;;;2.85;100.00;99929.54;105906;1251;71585;-79
2024/01/26 02:08:28;;;;;;;33.90;18.20;;;;;;;2.83;100.00;99930.48;106050;1254;61120;-78
2024/01/26 02:10:55;;;;;;;33.60;18.90;;;;;;;2.82;100.00;99937.05;105890;1254;59568;-77
2024/01/26 02:13:22;;;;;;;30.40;17.30;;;;;;;2.83;100.00;99940.46;105893;1251;72921;-78
2024/01/26 02:15:49;;;;;;;30.40;18.60;;;;;;;2.84;100.00;99940.27;105972;1255;63781;-78
2024/01/26 02:18:16;;;;;;;28.40;16.90;;;;;;;2.86;100.00;99941.59;105887;1251;71128;-77
2024/01/26 02:20:43;;;;;;;31.80;17.50;;;;;;;2.87;100.00;99943.27;106053;1254;61229;-78
2024/01/26 02:23:22;;;;;;;29.20;18.00;;;;;;;2.86;100.00;99945.70;106098;1254;59772;-79
2024/01/26 02:25:49;;;;;;;28.70;16.60;;;;;;;2.84;100.00;99948.55;109219;1250;73138;-78
2024/01/26 02:28:16;;;;;;;32.80;17.40;;;;;;;2.83;100.00;99951.86;108846;1250;62344;-77
2024/01/26 02:30:43;;;;;;;31.70;18.90;;;;;;;2.82;100.00;99953.81;106040;1254;72760;-78
2024/01/26 02:33:09;;;;;;;33.30;20.30;;;;;;;2.80;100.00;99950.44;105874;1250;61259;-78
2024/01/26 02:35:36;;;;;;;29.00;18.70;;;;;;;2.80;100.00;99949.42;105947;1251;59730;-80
2024/01/26 02:38:03;;;;;;;35.30;20.30;;;;;;;2.81;100.00;99945.92;105929;1251;73163;-79
2024/01/26 02:40:30;;;;;;;33.00;19.60;;;;;;;2.81;100.00;99948.34;105998;1254;63995;-78
2024/01/26 02:42:57;;;;;;;41.60;22.70;;;;;;;2.81;100.00;99949.70;106057;1256;72529;-79
2024/01/26 02:45:25;;;;;;;43.70;23.10;;;;;;;2.82;100.00;99954.33;107144;1251;61214;-78
2024/01/26 02:47:53;;;;;;;38.40;20.40;;;;;;;2.83;100.00;99956.86;108826;1250;59452;-76
2024/01/26 02:50:20;;;;;;;36.50;20.70;;;;;;;2.85;100.00;99959.24;106608;1251;71755;-78
2024/01/26 02:52:47;;;;;;;34.00;20.00;;;;;;;2.86;100.00;99955.55;106116;1255;64056;-79
2024/01/26 02:55:14;;;;;;;39.60;22.60;;;;;;;2.87;100.00;99954.34;105837;1255;72675;-79
2024/01/26 02:57:41;;;;;;;42.30;22.50;;;;;;;2.87;100.00;99957.60;105870;1251;60405;-77
2024/01/26 03:00:09;;;;;;;37.90;23.00;;;;;;;2.87;100.00;99958.11;105931;1251;60486;-81
2024/01/26 03:02:37;;;;;;;37.00;20.70;;;;;;;2.85;100.00;99955.80;106002;1251;73937;-78
2024/01/26 03:05:05;;;;;;;35.00;19.30;;;;;;;2.81;100.00;99954.56;108847;1250;62354;-78
2024/01/26 03:07:33;;;;;;;36.80;21.20;;;;;;;2.78;100.00;99956.23;107824;1251;72639;-76
2024/01/26 03:10:00;;;;;;;38.70;22.10;;;;;;;2.75;100.00;99959.27;107402;1250;60530;-77
2024/01/26 03:12:28;;;;;;;43.30;21.30;;;;;;;2.71;100.00;99957.70;107169;1251;60478;-77
2024/01/26 03:14:55;;;;;;;40.30;21.90;;;;;;;2.69;100.00;99959.15;105860;1251;73792;-79
2024/01/26 03:17:21;;;;;;;42.20;21.30;;;;;;;2.67;100.00;99958.52;105920;1251;61763;-79
2024/01/26 03:19:49;;;;;;;38.60;22.10;;;;;;;2.66;100.00;99961.30;105934;1251;70245;-81
2024/01/26 03:22:16;;;;;;;33.70;20.80;;;;;;;2.66;100.00;99961.16;105959;1251;60466;-80
2024/01/26 03:24:44;;;;;;;38.30;22.20;;;;;;;2.67;100.00;99969.94;105970;1251;60466;-78
2024/01/26 03:27:11;;;;;;;35.50;20.70;;;;;;;2.67;100.00;99973.02;105944;1251;73652;-79
2024/01/26 03:29:38;;;;;;;36.50;21.60;;;;;;;2.69;100.00;99973.79;105928;1251;62607;-80
2024/01/26 03:32:05;;;;;;;37.20;21.30;;;;;;;2.72;100.00;99973.18;106099;1251;71269;-79
2024/01/26 03:34:34;;;;;;;38.80;20.50;;;;;;;2.74;100.00;99975.38;105956;1254;61108;-79
2024/01/26 03:37:01;;;;;;;35.90;20.80;;;;;;;2.76;100.00;99982.37;106013;1251;60440;-81
2024/01/26 03:39:29;;;;;;;36.70;21.60;;;;;;;2.78;100.00;99982.46;105939;1255;73826;-81
2024/01/26 03:41:56;;;;;;;51.70;28.90;;;;;;;2.81;100.00;99986.14;106030;1254;63882;-79
2024/01/26 03:44:23;;;;;;;62.60;33.90;;;;;;;2.84;100.00;99987.59;105906;1251;71271;-79
2024/01/26 03:46:50;;;;;;;60.40;32.00;;;;;;;2.83;100.00;99988.80;105947;1254;61213;-81
2024/01/26 03:49:17;;;;;;;54.90;30.30;;;;;;;2.84;100.00;99991.72;105944;1253;60534;-81
2024/01/26 03:51:45;;;;;;;44.80;25.50;;;;;;;2.85;100.00;99991.33;105936;1254;72668;-81
2024/01/26 03:54:12;;;;;;;49.10;25.10;;;;;;;2.87;100.00;99996.60;105783;1256;63772;-80
2024/01/26 03:56:39;;;;;;;34.90;21.00;;;;;;;2.89;100.00;99995.49;105901;1254;71220;-81
2024/01/26 03:59:06;;;;;;;33.20;19.90;;;;;;;2.89;100.00;99994.80;105945;1254;60565;-81
2024/01/26 04:01:34;;;;;;;34.20;20.40;;;;;;;2.90;100.00;99997.36;105930;1254;60543;-80
2024/01/26 04:04:00;;;;;;;34.50;19.50;;;;;;;2.90;100.00;99994.77;105953;1256;73862;-82
2024/01/26 04:06:29;;;;;;;31.30;17.60;;;;;;;2.90;100.00;99994.91;105976;1254;63918;-79
2024/01/26 04:08:58;;;;;;;34.00;20.60;;;;;;;2.90;100.00;99993.02;107073;1254;71281;-78
2024/01/26 04:11:26;;;;;;;31.80;18.40;;;;;;;2.90;100.00;99994.94;105894;1256;61117;-80
2024/01/26 04:13:53;;;;;;;31.60;19.20;;;;;;;2.90;100.00;99995.27;105980;1256;60453;-80
2024/01/26 04:16:20;;;;;;;34.20;19.40;;;;;;;2.89;100.00;99995.48;105955;1253;73977;-81
2024/01/26 04:18:47;;;;;;;35.50;22.00;;;;;;;2.89;100.00;99996.02;105837;1254;62329;-79
2024/01/26 04:21:14;;;;;;;30.80;18.60;;;;;;;2.88;100.00;100000.71;105837;1256;70521;-81
2024/01/26 04:23:41;;;;;;;27.30;18.20;;;;;;;2.87;100.00;100002.13;105933;1253;60460;-79
2024/01/26 04:26:07;;;;;;;35.90;19.40;;;;;;;2.84;100.00;100006.73;105846;1254;60405;-77
2024/01/26 04:28:34;;;;;;;25.20;15.60;;;;;;;2.82;100.00;100012.02;105846;1252;72429;-80
2024/01/26 04:31:03;;;;;;;23.30;15.10;;;;;;;2.77;100.00;100015.96;105967;1256;63687;-79
2024/01/26 04:33:30;;;;;;;24.50;16.30;;;;;;;2.71;100.00;100013.42;105771;1254;71526;-79
2024/01/26 04:35:57;;;;;;;23.30;14.70;;;;;;;2.67;100.00;100015.14;105940;1254;60528;-79
2024/01/26 04:38:25;;;;;;;18.50;13.10;;;;;;;2.63;100.00;100014.94;105894;1257;60383;-79
2024/01/26 04:40:53;;;;;;;22.60;14.30;;;;;;;2.59;100.00;100017.16;105875;1253;73625;-78
2024/01/26 04:43:19;;;;;;;25.20;13.80;;;;;;;2.57;100.00;100017.76;105886;1256;62377;-81
2024/01/26 04:45:46;;;;;;;22.60;15.40;;;;;;;2.55;100.00;100020.94;105851;1256;72686;-80
2024/01/26 04:48:13;;;;;;;22.20;14.50;;;;;;;2.54;100.00;100021.16;105779;1254;60543;-80
2024/01/26 04:50:40;;;;;;;20.20;14.30;;;;;;;2.54;100.00;100021.48;105824;1254;60607;-78
2024/01/26 04:53:07;;;;;;;20.20;14.30;;;;;;;2.54;100.00;100020.83;105895;1254;73626;-79
2024/01/26 04:55:33;;;;;;;24.20;15.10;;;;;;;2.54;100.00;100023.90;106027;1256;63617;-77
2024/01/26 04:58:01;;;;;;;26.70;15.80;;;;;;;2.53;100.00;100026.70;105835;1254;72665;-79
2024/01/26 05:00:28;;;;;;;24.40;15.40;;;;;;;2.53;100.00;100026.52;105825;1253;61106;-80
2024/01/26 05:02:55;;;;;;;21.90;15.00;;;;;;;2.53;100.00;100029.30;105845;1254;60513;-78
2024/01/26 05:05:22;;;;;;;31.30;18.60;;;;;;;2.53;100.00;100031.70;106936;1253;72361;-78
2024/01/26 05:07:49;;;;;;;40.00;20.10;;;;;;;2.53;100.00;100028.78;108826;1253;62593;-77
2024/01/26 05:10:18;;;;;;;33.90;18.40;;;;;;;2.53;100.00;100027.39;109031;1253;71424;-78
2024/01/26 05:12:45;;;;;;;32.40;17.20;;;;;;;2.55;100.00;100030.78;109576;1253;59569;-78
2024/01/26 05:15:12;;;;;;;24.40;16.60;;;;;;;2.55;100.00;100031.95;108480;1254;60469;-79
2024/01/26 05:17:39;;;;;;;24.00;15.90;;;;;;;2.56;100.00;100034.70;105913;1255;72883;-80
2024/01/26 05:20:07;;;;;;;28.30;17.60;;;;;;;2.56;100.00;100035.59;106974;1251;63867;-77
2024/01/26 05:22:34;;;;;;;20.20;13.60;;;;;;;2.58;100.00;100036.54;107516;1256;71500;-77
2024/01/26 05:25:01;;;;;;;19.70;13.60;;;;;;;2.58;100.00;100040.49;105983;1257;60566;-80
2024/01/26 05:27:28;;;;;;;19.30;14.10;;;;;;;2.58;100.00;100041.01;106115;1253;60523;-79
2024/01/26 05:29:56;;;;;;;22.60;14.60;;;;;;;2.58;100.00;100042.22;105919;1251;73848;-79
2024/01/26 05:32:23;;;;;;;20.90;14.40;;;;;;;2.58;100.00;100044.46;105886;1257;63732;-79
2024/01/26 05:34:50;;;;;;;21.60;14.20;;;;;;;2.57;100.00;100047.60;105920;1255;72493;-80
2024/01/26 05:37:17;;;;;;;22.20;13.50;;;;;;;2.58;100.00;100050.52;106041;1256;61089;-79
2024/01/26 05:39:44;;;;;;;21.20;14.90;;;;;;;2.58;100.00;100054.48;105820;1256;60412;-80
2024/01/26 05:42:11;;;;;;;23.50;15.10;;;;;;;2.57;100.00;100056.05;105905;1255;73887;-80
2024/01/26 05:44:38;;;;;;;21.70;13.90;;;;;;;2.58;100.00;100060.17;106236;1256;63847;-78
2024/01/26 05:47:05;;;;;;;20.90;14.90;;;;;;;2.58;100.00;100060.16;106121;1251;72430;-78
2024/01/26 05:49:33;;;;;;;23.20;15.10;;;;;;;2.58;100.00;100065.88;106125;1256;60456;-79
2024/01/26 05:52:00;;;;;;;22.40;15.20;;;;;;;2.55;100.00;100068.57;106449;1253;60395;-78
2024/01/26 05:54:27;;;;;;;31.10;20.60;;;;;;;2.53;100.00;100068.48;106112;1252;73832;-78
2024/01/26 05:56:54;;;;;;;24.10;16.00;;;;;;;2.51;100.00;100069.21;106470;1255;64397;-78
2024/01/26 05:59:21;;;;;;;25.30;16.70;;;;;;;2.49;100.00;100066.88;106394;1251;71315;-79
2024/01/26 06:01:48;;;;;;;25.50;16.30;;;;;;;2.48;100.00;100070.16;106239;1252;60543;-81
2024/01/26 06:04:15;;;;;;;27.90;16.10;;;;;;;2.48;100.00;100072.40;106000;1256;60435;-80
2024/01/26 06:06:42;;;;;;;26.20;17.50;;;;;;;2.49;100.00;100072.23;105817;1256;73787;-79
2024/01/26 06:09:09;;;;;;;25.40;17.30;;;;;;;2.49;100.00;100076.19;105890;1254;62980;-79
2024/01/26 06:11:36;;;;;;;23.80;16.30;;;;;;;2.49;100.00;100077.06;106000;1254;72685;-79
2024/01/26 06:14:03;;;;;;;30.40;17.70;;;;;;;2.49;100.00;100083.96;105860;1255;60491;-78
2024/01/26 06:16:30;;;;;;;24.10;15.20;;;;;;;2.49;100.00;100086.89;105908;1254;60460;-81
2024/01/26 06:18:58;;;;;;;24.30;15.40;;;;;;;2.48;100.00;100090.89;105940;1256;73829;-77
2024/01/26 06:21:30;;;;;;;23.80;16.40;;;;;;;2.48;100.00;100089.33;106003;1253;62491;-79
2024/01/26 06:23:57;;;;;;;25.20;15.90;;;;;;;2.50;100.00;100091.00;105940;1254;72886;-77
2024/01/26 06:26:25;;;;;;;24.30;15.40;;;;;;;2.50;100.00;100089.09;105956;1256;61177;-77
2024/01/26 06:28:52;;;;;;;28.20;17.00;;;;;;;2.53;100.00;100090.20;105976;1253;60442;-78
2024/01/26 06:31:24;;;;;;;28.90;17.10;;;;;;;2.55;100.00;100091.52;105950;1253;72241;-81
2024/01/26 06:33:51;;;;;;;27.10;18.40;;;;;;;2.58;100.00;100091.05;106010;1256;63705;-79
2024/01/26 06:36:18;;;;;;;29.00;19.30;;;;;;;2.60;100.00;100093.05;106089;1252;72660;-78
2024/01/26 06:38:45;;;;;;;30.80;19.30;;;;;;;2.62;100.00;100093.83;106017;1256;61216;-79
2024/01/26 06:41:12;;;;;;;28.90;18.20;;;;;;;2.65;100.00;100100.97;105914;1256;60457;-78
2024/01/26 06:43:39;;;;;;;25.60;16.40;;;;;;;2.67;100.00;100104.73;105699;1252;72680;-79
2024/01/26 06:46:06;;;;;;;27.70;18.00;;;;;;;2.67;100.00;100111.27;105872;1256;63762;-79
2024/01/26 06:48:33;;;;;;;28.70;18.10;;;;;;;2.67;100.00;100114.20;105837;1254;72614;-77
2024/01/26 06:51:00;;;;;;;26.90;16.50;;;;;;;2.67;100.00;100116.45;105912;1254;60533;-79
2024/01/26 06:53:27;;;;;;;24.80;15.90;;;;;;;2.68;100.00;100111.21;105977;1254;60571;-79
2024/01/26 06:55:55;;;;;;;25.80;17.40;;;;;;;2.69;100.00;100112.05;105976;1254;72463;-80
2024/01/26 06:58:21;;;;;;;28.60;18.90;;;;;;;2.69;100.00;100113.77;105922;1256;62294;-79
2024/01/26 07:00:48;;;;;;;26.00;16.40;;;;;;;2.69;100.00;100109.27;105915;1254;72681;-80
2024/01/26 07:03:15;;;;;;;25.90;16.40;;;;;;;2.70;100.00;100108.37;106045;1254;60815;-80
2024/01/26 07:05:42;;;;;;;31.90;18.00;;;;;;;2.71;100.00;100109.21;105880;1254;60542;-78
2024/01/26 07:08:09;;;;;;;29.50;17.00;;;;;;;2.72;100.00;100109.20;106155;1255;73923;-79
2024/01/26 07:10:37;;;;;;;26.50;17.40;;;;;;;2.72;100.00;100117.48;106221;1255;63823;-78
2024/01/26 07:13:04;;;;;;;26.10;16.60;;;;;;;2.74;100.00;100118.97;106027;1256;71485;-78
2024/01/26 07:15:31;;;;;;;31.60;18.40;;;;;;;2.76;100.00;100119.73;105878;1254;61169;-80
2024/01/26 07:17:58;;;;;;;27.90;17.30;;;;;;;2.79;100.00;100118.59;105930;1256;60432;-81
2024/01/26 07:20:25;;;;;;;28.70;17.30;;;;;;;2.84;100.00;100119.97;105919;1252;73682;-79
2024/01/26 07:22:52;;;;;;;31.00;17.60;;;;;;;2.91;100.00;100116.98;105917;1254;63855;-78
2024/01/26 07:25:19;;;;;;;29.60;16.10;;;;;;;2.99;100.00;100118.06;105965;1254;71204;-78
2024/01/26 07:27:47;;;;;;;27.70;16.40;;;;;;;3.08;100.00;100114.27;106005;1256;60877;-79
2024/01/26 07:30:17;;;;;;;22.80;15.40;;;;;;;3.18;100.00;100118.73;106154;1254;62009;-79
2024/01/26 07:32:44;;;;;;;23.50;15.80;;;;;;;3.30;100.00;100119.83;106042;1253;72368;-79
2024/01/26 07:35:10;;;;;;;22.30;15.80;;;;;;;3.43;100.00;100125.38;105909;1255;63768;-79
2024/01/26 07:37:39;;;;;;;24.00;14.80;;;;;;;3.55;100.00;100126.83;106049;1254;71171;-80
2024/01/26 07:40:08;;;;;;;22.60;15.80;;;;;;;3.64;100.00;100126.81;106098;1256;60533;-79
2024/01/26 07:42:35;;;;;;;20.80;13.60;;;;;;;3.69;100.00;100133.35;105963;1255;60479;-79
2024/01/26 07:45:02;;;;;;;22.20;16.00;;;;;;;3.71;100.00;100137.59;105987;1251;73696;-81
2024/01/26 07:47:30;;;;;;;18.10;12.70;;;;;;;3.72;100.00;100142.23;105972;1255;63763;-79
2024/01/26 07:49:56;;;;;;;20.40;13.20;;;;;;;3.71;100.00;100143.84;105893;1253;71441;-80
2024/01/26 07:52:23;;;;;;;18.70;13.50;;;;;;;3.72;100.00;100146.91;105868;1256;61247;-81
2024/01/26 07:54:52;;;;;;;20.90;14.30;;;;;;;3.71;100.00;100147.80;105869;1256;60398;-81
2024/01/26 07:57:20;;;;;;;19.40;13.80;;;;;;;3.69;100.00;100150.30;105911;1254;73846;-81
2024/01/26 07:59:48;;;;;;;15.70;11.70;;;;;;;3.66;100.00;100150.96;105854;1256;63519;-80
2024/01/26 08:02:15;;;;;;;18.20;12.70;;;;;;;3.64;100.00;100152.39;105957;1254;71469;-80
2024/01/26 08:04:42;;;;;;;24.30;16.20;;;;;;;3.67;100.00;100153.16;105849;1256;61060;-82
2024/01/26 08:07:08;;;;;;;19.60;13.50;;;;;;;3.73;100.00;100158.61;105853;1256;60319;-81
2024/01/26 08:09:36;;;;;;;20.20;13.20;;;;;;;3.80;100.00;100160.79;105899;1254;72019;-81
2024/01/26 08:12:03;;;;;;;21.20;14.50;;;;;;;3.85;100.00;100160.05;106002;1256;62634;-78
2024/01/26 08:14:30;;;;;;;25.50;16.00;;;;;;;3.89;100.00;100162.48;108649;1253;71499;-80
2024/01/26 08:16:57;;;;;;;21.70;14.30;;;;;;;3.93;100.00;100165.77;108901;1251;60491;-80
2024/01/26 08:19:24;;;;;;;24.40;14.80;;;;;;;3.98;100.00;100166.47;106237;1251;60542;-80
2024/01/26 08:21:55;;;;;;;22.50;15.40;;;;;;;3.99;100.00;100166.55;106463;1256;74824;-81
2024/01/26 08:24:23;;;;;;;23.60;14.60;;;;;;;4.02;100.00;100169.40;105943;1254;63927;-82
2024/01/26 08:26:50;;;;;;;24.80;16.40;;;;;;;4.03;100.00;100172.14;105844;1254;71979;-82
2024/01/26 08:29:17;;;;;;;25.80;16.20;;;;;;;4.05;100.00;100174.28;105939;1257;61434;-81
2024/01/26 08:31:44;;;;;;;26.30;15.90;;;;;;;4.09;100.00;100173.09;105918;1252;60542;-81
2024/01/26 08:34:11;;;;;;;23.10;15.30;;;;;;;4.11;100.00;100171.09;105838;1252;73788;-79
2024/01/26 08:36:39;;;;;;;25.10;15.50;;;;;;;4.13;100.00;100171.68;105906;1255;63997;-81
2024/01/26 08:39:06;;;;;;;22.60;14.50;;;;;;;4.15;100.00;100169.90;105824;1254;72675;-79
2024/01/26 08:41:33;;;;;;;17.00;12.50;;;;;;;4.15;100.00;100171.78;105792;1256;61232;-80
2024/01/26 08:43:59;;;;;;;22.90;14.50;;;;;;;4.13;100.00;100173.45;106053;1254;61358;-81
2024/01/26 08:46:28;;;;;;;22.40;14.00;;;;;;;4.10;100.00;100174.44;105841;1251;73757;-80
2024/01/26 08:48:56;;;;;;;23.30;14.30;;;;;;;4.11;100.00;100171.80;106053;1256;63500;-81
2024/01/26 08:51:23;;;;;;;22.20;13.70;;;;;;;4.13;100.00;100178.80;105874;1254;71426;-80
2024/01/26 08:53:50;;;;;;;23.10;13.90;;;;;;;4.16;100.00;100178.71;106021;1252;60580;-81
2024/01/26 08:56:17;;;;;;;21.10;13.30;;;;;;;4.19;100.00;100184.82;106039;1254;60536;-80
2024/01/26 08:58:44;;;;;;;18.70;12.90;;;;;;;4.21;100.00;100191.31;106481;1251;72320;-79
2024/01/26 09:01:11;;;;;;;19.20;13.00;;;;;;;4.20;100.00;100189.77;108951;1254;63024;-79
2024/01/26 09:03:38;;;;;;;22.30;13.80;;;;;;;4.20;100.00;100187.70;109006;1253;71445;-79
2024/01/26 09:06:07;;;;;;;20.40;12.70;;;;;;;4.18;100.00;100186.58;109585;1252;59556;-79
2024/01/26 09:08:35;;;;;;;23.80;14.70;;;;;;;4.17;100.00;100187.30;108569;1252;59224;-80
2024/01/26 09:11:02;;;;;;;24.90;15.70;;;;;;;4.15;100.00;100185.84;107030;1254;73870;-80
2024/01/26 09:13:29;;;;;;;24.00;15.10;;;;;;;4.13;100.00;100184.85;106000;1254;65153;-80
2024/01/26 09:15:56;;;;;;;24.40;14.50;;;;;;;4.12;100.00;100187.34;106026;1256;72615;-79
2024/01/26 09:18:23;;;;;;;25.30;14.30;;;;;;;4.09;100.00;100189.86;105916;1256;61287;-81
2024/01/26 09:21:10;;;;;;;22.60;14.70;;;;;;;4.06;100.00;100185.84;106009;1254;60427;-81
2024/01/26 09:23:38;;;;;;;24.00;15.00;;;;;;;4.05;100.00;100184.48;105915;1254;73894;-78
2024/01/26 09:26:05;;;;;;;23.00;14.20;;;;;;;4.05;100.00;100187.45;105930;1253;63205;-80
2024/01/26 09:28:32;;;;;;;25.00;16.40;;;;;;;4.04;100.00;100185.21;105814;1254;72625;-79
2024/01/26 09:30:59;;;;;;;27.70;18.20;;;;;;;4.06;100.00;100188.61;105856;1256;60348;-80
2024/01/26 09:33:26;;;;;;;24.50;14.60;;;;;;;4.07;100.00;100188.90;106016;1254;60546;-81
2024/01/26 09:35:54;;;;;;;27.60;16.20;;;;;;;4.07;100.00;100193.40;106020;1256;74071;-78
2024/01/26 09:38:24;;;;;;;28.60;17.20;;;;;;;4.08;100.00;100192.70;105810;1256;64139;-80
2024/01/26 09:40:51;;;;;;;28.80;17.70;;;;;;;4.09;100.00;100194.90;106025;1256;72621;-79
2024/01/26 09:43:19;;;;;;;30.20;17.30;;;;;;;4.09;100.00;100192.45;106030;1256;62174;-81
2024/01/26 09:45:47;;;;;;;32.60;18.80;;;;;;;4.11;100.00;100189.29;105898;1254;61568;-81
2024/01/26 09:48:14;;;;;;;29.00;18.60;;;;;;;4.13;100.00;100189.87;105819;1256;73000;-82
2024/01/26 09:50:42;;;;;;;29.40;16.70;;;;;;;4.17;100.00;100191.11;105884;1255;63810;-81
2024/01/26 09:53:09;;;;;;;30.00;18.70;;;;;;;4.22;100.00;100187.80;105844;1251;71149;-82
2024/01/26 09:55:39;;;;;;;28.80;17.20;;;;;;;4.27;100.00;100191.73;105778;1254;61079;-80
2024/01/26 09:58:07;;;;;;;24.70;15.80;;;;;;;4.33;100.00;100190.45;105736;1256;60335;-80
2024/01/26 10:00:34;;;;;;;23.90;15.50;;;;;;;4.37;100.00;100188.59;105828;1254;73377;-79
2024/01/26 10:03:01;;;;;;;25.30;16.20;;;;;;;4.40;100.00;100192.27;105863;1257;63148;-79
2024/01/26 10:05:28;;;;;;;25.20;16.80;;;;;;;4.43;100.00;100188.13;105904;1254;72647;-80
2024/01/26 10:07:55;;;;;;;26.10;15.50;;;;;;;4.46;100.00;100190.10;105942;1252;61048;-81
2024/01/26 10:10:23;;;;;;;27.00;17.60;;;;;;;4.47;100.00;100186.41;106274;1254;60424;-80
2024/01/26 10:12:52;;;;;;;26.80;15.90;;;;;;;4.47;100.00;100187.11;106203;1254;73938;-79
2024/01/26 10:15:19;;;;;;;26.00;15.70;;;;;;;4.48;100.00;100186.19;105994;1255;64343;-80
2024/01/26 10:17:52;;;;;;;27.80;16.40;;;;;;;4.49;100.00;100184.58;106023;1256;72109;-79
2024/01/26 10:20:20;;;;;;;27.50;16.80;;;;;;;4.51;100.00;100190.05;106023;1254;61145;-78
2024/01/26 10:22:47;;;;;;;25.00;16.10;;;;;;;4.53;100.00;100189.46;106217;1256;60421;-79
2024/01/26 10:25:14;;;;;;;28.60;17.30;;;;;;;4.52;100.00;100193.30;106919;1252;75836;-79
2024/01/26 10:27:41;;;;;;;31.30;19.20;;;;;;;4.49;100.00;100192.02;106683;1252;63814;-80
2024/01/26 10:30:10;;;;;;;37.90;21.90;;;;;;;4.48;100.00;100193.83;106298;1254;72948;-80
2024/01/26 10:32:38;;;;;;;32.30;20.90;;;;;;;4.48;100.00;100195.05;106010;1254;61262;-80
2024/01/26 10:35:07;;;;;;;42.30;21.70;;;;;;;4.48;100.00;100195.86;105995;1252;60440;-79
2024/01/26 10:37:34;;;;;;;37.20;20.90;;;;;;;4.49;100.00;100192.58;106050;1252;74778;-81
2024/01/26 10:40:07;;;;;;;37.40;21.10;;;;;;;4.50;100.00;100191.48;106357;1256;63610;-80
2024/01/26 10:42:36;;;;;;;45.00;22.60;;;;;;;4.52;100.00;100191.59;106197;1254;73601;-78
2024/01/26 10:45:04;;;;;;;39.80;20.80;;;;;;;4.51;100.00;100192.32;106779;1255;60635;-80
2024/01/26 10:47:35;;;;;;;37.50;20.40;;;;;;;4.47;100.00;100194.90;106045;1254;61875;-78
2024/01/26 10:50:06;;;;;;;53.90;23.90;;;;;;;4.43;100.00;100194.90;105872;1256;73999;-79
2024/01/26 10:52:37;;;;;;;47.80;24.10;;;;;;;4.36;100.00;100196.90;105882;1256;64003;-80
2024/01/26 10:55:06;;;;;;;40.70;24.20;;;;;;;4.31;100.00;100196.26;105839;1256;72454;-79
2024/01/26 10:57:33;;;;;;;48.80;23.40;;;;;;;4.28;100.00;100198.11;106335;1254;60421;-80
2024/01/26 11:00:00;;;;;;;55.90;24.30;;;;;;;4.27;100.00;100193.47;106153;1254;60444;-80
2024/01/26 11:02:36;;;;;;;45.70;23.50;;;;;;;4.25;100.00;100193.38;106220;1256;181387;-79
2024/01/26 11:05:58;;;;;;;46.60;24.70;;;;;;;4.24;100.00;100192.20;102740;1291;600182;-80